Bow Fortune — LAJQ5 — position and weather

sailwx.info

Track history (hours):
 
Tides and Currents Weather Stations Pressure Air Temp Water Temp Dewpoint Dewpoint Depression Visibility Wind Speed Wind Dir Waves Ship Positions

Bow Fortune

Last reported at 2017-Dec-03 02:48 UTC. Time now 2017-Dec-17 23:22 UTC.
Position N 28°50' W 095°08'.
Warning: this ship's position is 14 days out of date.

Length 183 m; draft 8.7 m.

Type: Ship. MMSI: 257401000.

Date/timePositionNaut miles runAvg speedWind from/ knotsBaromVisibWave heightAir tempDewpointWater temp
2017-Dec-03 02:48N 28°50' W 095°08'0 0.0
2017-Dec-03 02:24N 28°50' W 095°08'0 0.0
2017-Dec-03 00:30N 28°50' W 095°08'0 0.0
2017-Dec-03 00:00N 28°50' W 095°08'36 1.9
2017-Dec-02 05:21N 29°21' W 094°47'412.7
2017-Dec-02 05:00N 29°25' W 094°50'612.0
2017-Dec-02 04:30N 29°30' W 094°52'612.4
2017-Dec-02 04:00N 29°35' W 094°56'4 8.1
2017-Dec-02 03:30N 29°37' W 095°01'1 1.1
2017-Dec-02 03:00N 29°37' W 095°01'0 0.3
2017-Dec-02 02:30N 29°37' W 095°01'0 0.0
2017-Dec-02 01:58N 29°37' W 095°01'0 0.0
2017-Dec-02 01:30N 29°37' W 095°01'0 0.0
2017-Dec-02 01:00N 29°37' W 095°01'0 0.0
2017-Dec-02 00:30N 29°37' W 095°01'0 0.0
2017-Dec-02 00:00N 29°37' W 095°01'0 0.0
2017-Dec-01 23:30N 29°37' W 095°01'0 0.0
2017-Dec-01 23:00N 29°37' W 095°01'0 0.0
2017-Dec-01 22:30N 29°37' W 095°01'0 0.5
2017-Dec-01 22:00N 29°37' W 095°01'3 5.7
2017-Dec-01 21:30N 29°37' W 094°58'5 9.7
2017-Dec-01 21:00N 29°33' W 094°55'714.1
2017-Dec-01 20:30N 29°27' W 094°51'9 0.6
2017-Dec-01 06:45N 29°21' W 094°43'0 0.0
2017-Dec-01 06:18N 29°21' W 094°43'0 0.0
2017-Dec-01 04:18N 29°21' W 094°43'0 0.0
2017-Dec-01 03:48N 29°21' W 094°43'0 0.0
2017-Dec-01 03:18N 29°21' W 094°43'0 0.0
2017-Nov-30 13:54N 29°21' W 094°43'0 0.0
2017-Nov-30 13:30N 29°21' W 094°43'0 0.0
2017-Nov-30 13:00N 29°21' W 094°43'0 0.0
2017-Nov-30 12:27N 29°21' W 094°43'0 0.0
2017-Nov-30 11:57N 29°21' W 094°43'0 0.1
2017-Nov-30 11:27N 29°21' W 094°43'0 0.0
2017-Nov-30 10:57N 29°21' W 094°43'0 0.1
2017-Nov-30 10:27N 29°21' W 094°43'0 0.2
2017-Nov-30 10:00N 29°21' W 094°43'0 0.1
2017-Nov-30 08:51N 29°21' W 094°43'0 0.0
2017-Nov-30 07:51N 29°21' W 094°43'0 1.4
2017-Nov-30 07:29N 29°21' W 094°44'3 6.1
2017-Nov-30 06:56N 29°21' W 094°47'512.4
2017-Nov-30 06:30N 29°26' W 094°50'612.6
2017-Nov-30 06:00N 29°32' W 094°53'612.4
2017-Nov-30 05:30N 29°37' W 094°57'611.3
2017-Nov-30 05:00N 29°42' W 095°00'4 7.2
2017-Nov-30 04:30N 29°44' W 095°03'3 5.1
2017-Nov-30 04:00N 29°45' W 095°06'3 5.8
2017-Nov-30 03:30N 29°45' W 095°10'3 6.0
2017-Nov-30 03:00N 29°44' W 095°13'3 5.3
2017-Nov-30 02:30N 29°44' W 095°16'1 1.9
2017-Nov-30 01:43N 29°45' W 095°17'0 0.0
2017-Nov-30 01:28N 29°45' W 095°17'0 0.0
2017-Nov-29 05:26N 29°45' W 095°17'0 0.9
2017-Nov-29 05:01N 29°45' W 095°17'1 2.2
2017-Nov-29 04:29N 29°44' W 095°17'2 4.7
2017-Nov-29 04:00N 29°43' W 095°14'3 5.1
2017-Nov-29 03:30N 29°45' W 095°12'3 5.2
2017-Nov-29 03:00N 29°44' W 095°09'3 6.1
2017-Nov-29 02:30N 29°46' W 095°05'3 6.0
2017-Nov-29 02:00N 29°44' W 095°03'4 7.6
2017-Nov-29 01:30N 29°41' W 094°59'5 9.4
2017-Nov-29 01:00N 29°37' W 094°58'3 5.4
2017-Nov-29 00:28N 29°37' W 095°01'0 0.2
2017-Nov-28 23:58N 29°37' W 095°01'0 0.0
2017-Nov-28 23:28N 29°37' W 095°01'0 0.0
2017-Nov-28 22:58N 29°37' W 095°01'0 0.0
2017-Nov-28 22:25N 29°37' W 095°01'0 0.0
2017-Nov-28 21:58N 29°37' W 095°01'0 0.0
2017-Nov-28 21:28N 29°37' W 095°01'0 0.0
2017-Nov-28 20:58N 29°37' W 095°01'0 0.0
2017-Nov-28 20:28N 29°37' W 095°01'0 0.0
2017-Nov-28 19:58N 29°37' W 095°01'0 0.0
2017-Nov-28 19:28N 29°37' W 095°01'0 0.0
2017-Nov-28 18:58N 29°37' W 095°01'0 0.0
2017-Nov-28 18:28N 29°37' W 095°01'0 0.0
2017-Nov-28 17:58N 29°37' W 095°01'0 0.0
2017-Nov-28 17:28N 29°37' W 095°01'0 0.0
2017-Nov-28 16:58N 29°37' W 095°01'0 0.0
2017-Nov-28 16:28N 29°37' W 095°01'0 0.0
2017-Nov-28 15:58N 29°37' W 095°01'0 0.0
2017-Nov-28 14:58N 29°37' W 095°01'0 0.0
2017-Nov-28 14:28N 29°37' W 095°01'0 0.0
2017-Nov-28 13:58N 29°37' W 095°01'0 0.0
2017-Nov-28 13:28N 29°37' W 095°01'0 0.0
2017-Nov-28 12:58N 29°37' W 095°01'0 0.0
2017-Nov-28 12:28N 29°37' W 095°01'0 0.0
2017-Nov-28 11:58N 29°37' W 095°01'0 0.0
2017-Nov-28 11:28N 29°37' W 095°01'0 0.0
2017-Nov-28 10:58N 29°37' W 095°01'0 0.0
2017-Nov-28 10:22N 29°37' W 095°01'0 0.0
2017-Nov-28 09:58N 29°37' W 095°01'0 0.0
2017-Nov-28 09:28N 29°37' W 095°01'0 0.0
2017-Nov-28 08:58N 29°37' W 095°01'0 0.0
2017-Nov-28 08:28N 29°37' W 095°01'0 0.0
2017-Nov-28 07:58N 29°37' W 095°01'0 0.0
2017-Nov-28 07:28N 29°37' W 095°01'0 0.0
2017-Nov-28 06:58N 29°37' W 095°01'0 0.0
2017-Nov-28 06:28N 29°37' W 095°01'0 0.0
2017-Nov-28 05:58N 29°37' W 095°01'0 0.0
2017-Nov-28 05:28N 29°37' W 095°01'0 0.0
2017-Nov-28 04:28N 29°37' W 095°01'0 0.0
2017-Nov-28 03:58N 29°37' W 095°01'0 0.0
2017-Nov-28 03:28N 29°37' W 095°01'0 0.0
2017-Nov-28 02:58N 29°37' W 095°01'0 0.0
2017-Nov-28 02:28N 29°37' W 095°01'0 0.0
2017-Nov-28 01:58N 29°37' W 095°01'0 0.0
2017-Nov-28 01:28N 29°37' W 095°01'0 0.0
2017-Nov-28 00:58N 29°37' W 095°01'0 0.0
2017-Nov-28 00:28N 29°37' W 095°01'0 0.0
2017-Nov-27 23:58N 29°37' W 095°01'0 0.0
2017-Nov-27 23:28N 29°37' W 095°01'0 0.0
2017-Nov-27 22:58N 29°37' W 095°01'0 0.0
2017-Nov-27 22:28N 29°37' W 095°01'0 0.0
2017-Nov-27 21:58N 29°37' W 095°01'0 0.0
2017-Nov-27 21:28N 29°37' W 095°01'0 0.0
2017-Nov-27 20:58N 29°37' W 095°01'0 0.0
2017-Nov-27 20:28N 29°37' W 095°01'0 0.0
2017-Nov-27 19:58N 29°37' W 095°01'0 0.0
2017-Nov-27 19:28N 29°37' W 095°01'0 0.0
2017-Nov-27 18:58N 29°37' W 095°01'0 0.0
2017-Nov-27 18:25N 29°37' W 095°01'0 0.0
2017-Nov-27 17:58N 29°37' W 095°01'0 0.0
2017-Nov-27 17:28N 29°37' W 095°01'0 0.8
2017-Nov-27 17:00N 29°37' W 095°01'4 7.2
2017-Nov-27 16:30N 29°36' W 094°57'612.6
2017-Nov-27 16:00N 29°31' W 094°53'612.8
2017-Nov-27 15:30N 29°25' W 094°50'2 0.1
2017-Nov-26 19:57N 29°23' W 094°49'511.8
2017-Nov-26 19:30N 29°28' W 094°51'611.6
2017-Nov-26 19:00N 29°33' W 094°54'611.4
2017-Nov-26 18:30N 29°38' W 094°58'5 9.9
2017-Nov-26 18:00N 29°42' W 095°01'4 7.8
2017-Nov-26 17:30N 29°45' W 095°04'2 0.0
2017-Nov-25 05:13N 29°45' W 095°06'0 0.4
2017-Nov-25 05:00N 29°45' W 095°06'1 2.4
2017-Nov-25 04:30N 29°46' W 095°05'4 8.4
2017-Nov-25 04:00N 29°43' W 095°01'5 9.8
2017-Nov-25 03:30N 29°39' W 094°58'713.4
2017-Nov-25 03:00N 29°33' W 094°55'714.3
2017-Nov-25 02:30N 29°27' W 094°51'3 0.1
2017-Nov-24 04:01N 29°24' W 094°49'211.6
2017-Nov-24 03:48N 29°26' W 094°50'411.9
2017-Nov-24 03:30N 29°30' W 094°52'612.2
2017-Nov-24 03:00N 29°35' W 094°56'612.1
2017-Nov-24 02:30N 29°40' W 094°59'5 9.3
2017-Nov-24 02:00N 29°44' W 095°02'3 6.8
2017-Nov-24 01:30N 29°45' W 095°06'0 0.9
2017-Nov-24 01:00N 29°45' W 095°06'0 0.0
2017-Nov-24 00:28N 29°45' W 095°06'0 0.0
2017-Nov-24 00:00N 29°45' W 095°06'0 0.0
2017-Nov-23 23:30N 29°45' W 095°06'0 0.0
2017-Nov-23 23:00N 29°45' W 095°06'0 0.0
2017-Nov-23 22:30N 29°45' W 095°06'0 0.0
2017-Nov-23 22:00N 29°45' W 095°06'0 0.0
2017-Nov-23 21:30N 29°45' W 095°06'0 0.0
2017-Nov-23 21:00N 29°45' W 095°06'0 0.0
2017-Nov-23 20:30N 29°45' W 095°06'0 0.0
2017-Nov-23 20:00N 29°45' W 095°06'0 0.0
2017-Nov-23 19:30N 29°45' W 095°06'0 0.0
2017-Nov-23 19:00N 29°45' W 095°06'0 0.0
2017-Nov-23 18:30N 29°45' W 095°06'0 0.0
2017-Nov-23 18:00N 29°45' W 095°06'0 0.0
2017-Nov-23 17:30N 29°45' W 095°06'0 0.0
2017-Nov-23 17:00N 29°45' W 095°06'0 0.0
2017-Nov-23 16:30N 29°45' W 095°06'0 0.0
2017-Nov-23 16:00N 29°45' W 095°06'0 0.0
2017-Nov-23 15:30N 29°45' W 095°06'0 0.0
2017-Nov-23 15:00N 29°45' W 095°06'0 0.0
2017-Nov-23 14:30N 29°45' W 095°06'0 0.0
2017-Nov-23 14:00N 29°45' W 095°06'0 0.0
2017-Nov-23 13:30N 29°45' W 095°06'0 0.0
2017-Nov-23 13:00N 29°45' W 095°06'0 0.0
2017-Nov-23 12:30N 29°45' W 095°06'0 0.0
2017-Nov-23 12:00N 29°45' W 095°06'0 0.0
2017-Nov-23 11:30N 29°45' W 095°06'0 0.0
2017-Nov-23 11:00N 29°45' W 095°06'0 0.0
2017-Nov-23 10:30N 29°45' W 095°06'0 0.0
2017-Nov-23 10:00N 29°45' W 095°06'0 0.0
2017-Nov-23 09:30N 29°45' W 095°06'0 0.0
2017-Nov-23 09:00N 29°45' W 095°06'0 0.0
2017-Nov-23 08:30N 29°45' W 095°06'0 0.0
2017-Nov-23 08:00N 29°45' W 095°06'0 0.1
2017-Nov-23 07:30N 29°45' W 095°06'2 3.3
2017-Nov-23 07:00N 29°45' W 095°04'4 7.3
2017-Nov-23 06:30N 29°42' W 095°01'3 6.9
2017-Nov-23 06:00N 29°40' W 094°58'5 9.2
2017-Nov-23 05:30N 29°35' W 094°56'612.0
2017-Nov-23 05:00N 29°31' W 094°53'713.7
2017-Nov-23 04:30N 29°24' W 094°49'2 2.5
2017-Nov-23 03:38N 29°22' W 094°50'1 8.3
2017-Nov-23 03:27N 29°23' W 094°52'  
Track history (hours):
 
Tides and Currents Weather Stations Pressure Air Temp Water Temp Dewpoint Dewpoint Depression Visibility Wind Speed Wind Dir Waves Ship Positions

Bow Fortune

Last reported at 2017-Dec-03 02:48 UTC. Time now 2017-Dec-17 23:22 UTC.
Position N 28°50' W 095°08'.
Warning: this ship's position is 14 days out of date.

Length 183 m; draft 8.7 m.

Type: Ship. MMSI: 257401000.

Date/timePositionNaut miles runAvg speedWind from/ knotsBaromVisibWave heightAir tempDewpointWater temp
2017-Dec-03 02:48N 28°50' W 095°08'0 0.0
2017-Dec-03 02:24N 28°50' W 095°08'0 0.0
2017-Dec-03 00:30N 28°50' W 095°08'0 0.0
2017-Dec-03 00:00N 28°50' W 095°08'36 1.9
2017-Dec-02 05:21N 29°21' W 094°47'412.7
2017-Dec-02 05:00N 29°25' W 094°50'612.0
2017-Dec-02 04:30N 29°30' W 094°52'612.4
2017-Dec-02 04:00N 29°35' W 094°56'4 8.1
2017-Dec-02 03:30N 29°37' W 095°01'1 1.1
2017-Dec-02 03:00N 29°37' W 095°01'0 0.3
2017-Dec-02 02:30N 29°37' W 095°01'0 0.0
2017-Dec-02 01:58N 29°37' W 095°01'0 0.0
2017-Dec-02 01:30N 29°37' W 095°01'0 0.0
2017-Dec-02 01:00N 29°37' W 095°01'0 0.0
2017-Dec-02 00:30N 29°37' W 095°01'0 0.0
2017-Dec-02 00:00N 29°37' W 095°01'0 0.0
2017-Dec-01 23:30N 29°37' W 095°01'0 0.0
2017-Dec-01 23:00N 29°37' W 095°01'0 0.0
2017-Dec-01 22:30N 29°37' W 095°01'0 0.5
2017-Dec-01 22:00N 29°37' W 095°01'3 5.7
2017-Dec-01 21:30N 29°37' W 094°58'5 9.7
2017-Dec-01 21:00N 29°33' W 094°55'714.1
2017-Dec-01 20:30N 29°27' W 094°51'9 0.6
2017-Dec-01 06:45N 29°21' W 094°43'0 0.0
2017-Dec-01 06:18N 29°21' W 094°43'0 0.0
2017-Dec-01 04:18N 29°21' W 094°43'0 0.0
2017-Dec-01 03:48N 29°21' W 094°43'0 0.0
2017-Dec-01 03:18N 29°21' W 094°43'0 0.0
2017-Nov-30 13:54N 29°21' W 094°43'0 0.0
2017-Nov-30 13:30N 29°21' W 094°43'0 0.0
2017-Nov-30 13:00N 29°21' W 094°43'0 0.0
2017-Nov-30 12:27N 29°21' W 094°43'0 0.0
2017-Nov-30 11:57N 29°21' W 094°43'0 0.1
2017-Nov-30 11:27N 29°21' W 094°43'0 0.0
2017-Nov-30 10:57N 29°21' W 094°43'0 0.1
2017-Nov-30 10:27N 29°21' W 094°43'0 0.2
2017-Nov-30 10:00N 29°21' W 094°43'0 0.1
2017-Nov-30 08:51N 29°21' W 094°43'0 0.0
2017-Nov-30 07:51N 29°21' W 094°43'0 1.4
2017-Nov-30 07:29N 29°21' W 094°44'3 6.1
2017-Nov-30 06:56N 29°21' W 094°47'512.4
2017-Nov-30 06:30N 29°26' W 094°50'612.6
2017-Nov-30 06:00N 29°32' W 094°53'612.4
2017-Nov-30 05:30N 29°37' W 094°57'611.3
2017-Nov-30 05:00N 29°42' W 095°00'4 7.2
2017-Nov-30 04:30N 29°44' W 095°03'3 5.1
2017-Nov-30 04:00N 29°45' W 095°06'3 5.8
2017-Nov-30 03:30N 29°45' W 095°10'3 6.0
2017-Nov-30 03:00N 29°44' W 095°13'3 5.3
2017-Nov-30 02:30N 29°44' W 095°16'1 1.9
2017-Nov-30 01:43N 29°45' W 095°17'0 0.0
2017-Nov-30 01:28N 29°45' W 095°17'0 0.0
2017-Nov-29 05:26N 29°45' W 095°17'0 0.9
2017-Nov-29 05:01N 29°45' W 095°17'1 2.2
2017-Nov-29 04:29N 29°44' W 095°17'2 4.7
2017-Nov-29 04:00N 29°43' W 095°14'3 5.1
2017-Nov-29 03:30N 29°45' W 095°12'3 5.2
2017-Nov-29 03:00N 29°44' W 095°09'3 6.1
2017-Nov-29 02:30N 29°46' W 095°05'3 6.0
2017-Nov-29 02:00N 29°44' W 095°03'4 7.6
2017-Nov-29 01:30N 29°41' W 094°59'5 9.4
2017-Nov-29 01:00N 29°37' W 094°58'3 5.4
2017-Nov-29 00:28N 29°37' W 095°01'0 0.2
2017-Nov-28 23:58N 29°37' W 095°01'0 0.0
2017-Nov-28 23:28N 29°37' W 095°01'0 0.0
2017-Nov-28 22:58N 29°37' W 095°01'0 0.0
2017-Nov-28 22:25N 29°37' W 095°01'0 0.0
2017-Nov-28 21:58N 29°37' W 095°01'0 0.0
2017-Nov-28 21:28N 29°37' W 095°01'0 0.0
2017-Nov-28 20:58N 29°37' W 095°01'0 0.0
2017-Nov-28 20:28N 29°37' W 095°01'0 0.0
2017-Nov-28 19:58N 29°37' W 095°01'0 0.0
2017-Nov-28 19:28N 29°37' W 095°01'0 0.0
2017-Nov-28 18:58N 29°37' W 095°01'0 0.0
2017-Nov-28 18:28N 29°37' W 095°01'0 0.0
2017-Nov-28 17:58N 29°37' W 095°01'0 0.0
2017-Nov-28 17:28N 29°37' W 095°01'0 0.0
2017-Nov-28 16:58N 29°37' W 095°01'0 0.0
2017-Nov-28 16:28N 29°37' W 095°01'0 0.0
2017-Nov-28 15:58N 29°37' W 095°01'0 0.0
2017-Nov-28 14:58N 29°37' W 095°01'0 0.0
2017-Nov-28 14:28N 29°37' W 095°01'0 0.0
2017-Nov-28 13:58N 29°37' W 095°01'0 0.0
2017-Nov-28 13:28N 29°37' W 095°01'0 0.0
2017-Nov-28 12:58N 29°37' W 095°01'0 0.0
2017-Nov-28 12:28N 29°37' W 095°01'0 0.0
2017-Nov-28 11:58N 29°37' W 095°01'0 0.0
2017-Nov-28 11:28N 29°37' W 095°01'0 0.0
2017-Nov-28 10:58N 29°37' W 095°01'0 0.0
2017-Nov-28 10:22N 29°37' W 095°01'0 0.0
2017-Nov-28 09:58N 29°37' W 095°01'0 0.0
2017-Nov-28 09:28N 29°37' W 095°01'0 0.0
2017-Nov-28 08:58N 29°37' W 095°01'0 0.0
2017-Nov-28 08:28N 29°37' W 095°01'0 0.0
2017-Nov-28 07:58N 29°37' W 095°01'0 0.0
2017-Nov-28 07:28N 29°37' W 095°01'0 0.0
2017-Nov-28 06:58N 29°37' W 095°01'0 0.0
2017-Nov-28 06:28N 29°37' W 095°01'0 0.0
2017-Nov-28 05:58N 29°37' W 095°01'0 0.0
2017-Nov-28 05:28N 29°37' W 095°01'0 0.0
2017-Nov-28 04:28N 29°37' W 095°01'0 0.0
2017-Nov-28 03:58N 29°37' W 095°01'0 0.0
2017-Nov-28 03:28N 29°37' W 095°01'0 0.0
2017-Nov-28 02:58N 29°37' W 095°01'0 0.0
2017-Nov-28 02:28N 29°37' W 095°01'0 0.0
2017-Nov-28 01:58N 29°37' W 095°01'0 0.0
2017-Nov-28 01:28N 29°37' W 095°01'0 0.0
2017-Nov-28 00:58N 29°37' W 095°01'0 0.0
2017-Nov-28 00:28N 29°37' W 095°01'0 0.0
2017-Nov-27 23:58N 29°37' W 095°01'0 0.0
2017-Nov-27 23:28N 29°37' W 095°01'0 0.0
2017-Nov-27 22:58N 29°37' W 095°01'0 0.0
2017-Nov-27 22:28N 29°37' W 095°01'0 0.0
2017-Nov-27 21:58N 29°37' W 095°01'0 0.0
2017-Nov-27 21:28N 29°37' W 095°01'0 0.0
2017-Nov-27 20:58N 29°37' W 095°01'0 0.0
2017-Nov-27 20:28N 29°37' W 095°01'0 0.0
2017-Nov-27 19:58N 29°37' W 095°01'0 0.0
2017-Nov-27 19:28N 29°37' W 095°01'0 0.0
2017-Nov-27 18:58N 29°37' W 095°01'0 0.0
2017-Nov-27 18:25N 29°37' W 095°01'0 0.0
2017-Nov-27 17:58N 29°37' W 095°01'0 0.0
2017-Nov-27 17:28N 29°37' W 095°01'0 0.8
2017-Nov-27 17:00N 29°37' W 095°01'4 7.2
2017-Nov-27 16:30N 29°36' W 094°57'612.6
2017-Nov-27 16:00N 29°31' W 094°53'612.8
2017-Nov-27 15:30N 29°25' W 094°50'2 0.1
2017-Nov-26 19:57N 29°23' W 094°49'511.8
2017-Nov-26 19:30N 29°28' W 094°51'611.6
2017-Nov-26 19:00N 29°33' W 094°54'611.4
2017-Nov-26 18:30N 29°38' W 094°58'5 9.9
2017-Nov-26 18:00N 29°42' W 095°01'4 7.8
2017-Nov-26 17:30N 29°45' W 095°04'2 0.0
2017-Nov-25 05:13N 29°45' W 095°06'0 0.4
2017-Nov-25 05:00N 29°45' W 095°06'1 2.4
2017-Nov-25 04:30N 29°46' W 095°05'4 8.4
2017-Nov-25 04:00N 29°43' W 095°01'5 9.8
2017-Nov-25 03:30N 29°39' W 094°58'713.4
2017-Nov-25 03:00N 29°33' W 094°55'714.3
2017-Nov-25 02:30N 29°27' W 094°51'3 0.1
2017-Nov-24 04:01N 29°24' W 094°49'211.6
2017-Nov-24 03:48N 29°26' W 094°50'411.9
2017-Nov-24 03:30N 29°30' W 094°52'612.2
2017-Nov-24 03:00N 29°35' W 094°56'612.1
2017-Nov-24 02:30N 29°40' W 094°59'5 9.3
2017-Nov-24 02:00N 29°44' W 095°02'3 6.8
2017-Nov-24 01:30N 29°45' W 095°06'0 0.9
2017-Nov-24 01:00N 29°45' W 095°06'0 0.0
2017-Nov-24 00:28N 29°45' W 095°06'0 0.0
2017-Nov-24 00:00N 29°45' W 095°06'0 0.0
2017-Nov-23 23:30N 29°45' W 095°06'0 0.0
2017-Nov-23 23:00N 29°45' W 095°06'0 0.0
2017-Nov-23 22:30N 29°45' W 095°06'0 0.0
2017-Nov-23 22:00N 29°45' W 095°06'0 0.0
2017-Nov-23 21:30N 29°45' W 095°06'0 0.0
2017-Nov-23 21:00N 29°45' W 095°06'0 0.0
2017-Nov-23 20:30N 29°45' W 095°06'0 0.0
2017-Nov-23 20:00N 29°45' W 095°06'0 0.0
2017-Nov-23 19:30N 29°45' W 095°06'0 0.0
2017-Nov-23 19:00N 29°45' W 095°06'0 0.0
2017-Nov-23 18:30N 29°45' W 095°06'0 0.0
2017-Nov-23 18:00N 29°45' W 095°06'0 0.0
2017-Nov-23 17:30N 29°45' W 095°06'0 0.0
2017-Nov-23 17:00N 29°45' W 095°06'0 0.0
2017-Nov-23 16:30N 29°45' W 095°06'0 0.0
2017-Nov-23 16:00N 29°45' W 095°06'0 0.0
2017-Nov-23 15:30N 29°45' W 095°06'0 0.0
2017-Nov-23 15:00N 29°45' W 095°06'0 0.0
2017-Nov-23 14:30N 29°45' W 095°06'0 0.0
2017-Nov-23 14:00N 29°45' W 095°06'0 0.0
2017-Nov-23 13:30N 29°45' W 095°06'0 0.0
2017-Nov-23 13:00N 29°45' W 095°06'0 0.0
2017-Nov-23 12:30N 29°45' W 095°06'0 0.0
2017-Nov-23 12:00N 29°45' W 095°06'0 0.0
2017-Nov-23 11:30N 29°45' W 095°06'0 0.0
2017-Nov-23 11:00N 29°45' W 095°06'0 0.0
2017-Nov-23 10:30N 29°45' W 095°06'0 0.0
2017-Nov-23 10:00N 29°45' W 095°06'0 0.0
2017-Nov-23 09:30N 29°45' W 095°06'0 0.0
2017-Nov-23 09:00N 29°45' W 095°06'0 0.0
2017-Nov-23 08:30N 29°45' W 095°06'0 0.0
2017-Nov-23 08:00N 29°45' W 095°06'0 0.1
2017-Nov-23 07:30N 29°45' W 095°06'2 3.3
2017-Nov-23 07:00N 29°45' W 095°04'4 7.3
2017-Nov-23 06:30N 29°42' W 095°01'3 6.9
2017-Nov-23 06:00N 29°40' W 094°58'5 9.2
2017-Nov-23 05:30N 29°35' W 094°56'612.0
2017-Nov-23 05:00N 29°31' W 094°53'713.7
2017-Nov-23 04:30N 29°24' W 094°49'2 2.5
2017-Nov-23 03:38N 29°22' W 094°50'1 8.3
2017-Nov-23 03:27N 29°23' W 094°52'  

Dump ship's entire track history